createdAt,value
2022-09-05T00:00:17.517Z,0.00
2022-09-05T00:01:16.525Z,0.00
2022-09-05T00:02:17.553Z,0.00
2022-09-05T00:03:16.757Z,0.00
2022-09-05T00:04:25.006Z,0.00
2022-09-05T00:05:17.507Z,0.00
2022-09-05T00:06:16.505Z,0.00
2022-09-05T00:07:41.280Z,0.00
2022-09-05T00:08:17.489Z,0.00
2022-09-05T00:09:16.505Z,0.00
2022-09-05T00:10:16.520Z,0.00
2022-09-05T00:11:40.659Z,0.00
2022-09-05T00:12:18.466Z,0.00
2022-09-05T00:13:16.495Z,0.00
2022-09-05T00:14:16.453Z,0.00
2022-09-05T00:15:18.957Z,0.00
2022-09-05T00:16:17.473Z,0.00
2022-09-05T00:17:16.388Z,0.00
2022-09-05T00:23:29.080Z,0.00
2022-09-05T00:24:20.904Z,0.00
2022-09-05T00:24:23.041Z,0.00
2022-09-05T00:24:24.864Z,0.00
2022-09-05T00:24:26.077Z,0.00
2022-09-05T00:24:32.277Z,0.00
2022-09-05T00:24:37.403Z,0.00
2022-09-05T00:25:33.234Z,0.00
2022-09-05T00:26:18.371Z,0.00
2022-09-05T00:27:16.432Z,0.00
2022-09-05T00:28:25.286Z,0.00
2022-09-05T00:29:24.441Z,0.00
2022-09-05T00:31:06.225Z,0.00
2022-09-05T00:31:55.065Z,0.00
2022-09-05T00:32:17.350Z,0.00
2022-09-05T00:33:17.876Z,0.00
2022-09-05T00:34:16.278Z,0.00
2022-09-05T00:35:16.357Z,0.00
2022-09-05T00:36:16.259Z,0.00
2022-09-05T00:37:17.058Z,0.00
2022-09-05T00:38:16.300Z,0.00
2022-09-05T00:39:16.227Z,0.00
2022-09-05T00:40:18.605Z,0.00
2022-09-05T00:41:16.208Z,0.00
2022-09-05T00:42:16.210Z,0.00
2022-09-05T00:43:16.226Z,0.00
2022-09-05T00:44:16.233Z,0.00
2022-09-05T00:45:19.829Z,0.00
2022-09-05T00:46:16.251Z,0.00
2022-09-05T00:47:16.152Z,0.00
2022-09-05T00:48:16.193Z,0.00
2022-09-05T00:49:16.167Z,0.00
2022-09-05T00:50:16.158Z,0.00
2022-09-05T00:51:16.180Z,0.00
2022-09-05T00:52:16.106Z,0.00
2022-09-05T00:53:16.147Z,0.00
2022-09-05T00:54:16.121Z,0.00
2022-09-05T00:55:16.135Z,0.00
2022-09-05T00:56:16.099Z,0.00
2022-09-05T00:57:17.926Z,0.00
2022-09-05T00:58:16.191Z,0.00
2022-09-05T00:59:16.131Z,0.00
2022-09-05T01:00:17.889Z,0.00
2022-09-05T01:01:21.131Z,0.00
2022-09-05T01:02:16.161Z,0.00
2022-09-05T01:03:16.164Z,0.00
2022-09-05T01:04:16.055Z,0.00
2022-09-05T01:05:16.109Z,0.00
2022-09-05T01:06:16.023Z,0.00
2022-09-05T01:07:16.042Z,0.00
2022-09-05T01:08:16.090Z,0.00
2022-09-05T01:09:16.995Z,0.00
2022-09-05T01:10:16.067Z,0.00
2022-09-05T01:11:17.024Z,0.00
2022-09-05T01:12:16.053Z,0.00
2022-09-05T01:13:16.011Z,0.00
2022-09-05T01:14:15.987Z,0.00
2022-09-05T01:15:16.051Z,0.00
2022-09-05T01:16:16.059Z,0.00
2022-09-05T01:17:16.009Z,0.00
2022-09-05T01:18:16.024Z,0.00
2022-09-05T01:19:16.262Z,0.00
2022-09-05T01:20:19.290Z,0.00
2022-09-05T01:21:16.013Z,0.00
2022-09-05T01:22:15.940Z,0.00
2022-09-05T01:23:16.068Z,0.00
2022-09-05T01:24:15.958Z,0.00
2022-09-05T01:25:15.924Z,0.00
2022-09-05T01:26:15.952Z,0.00
2022-09-05T01:27:15.860Z,0.00
2022-09-05T01:29:14.054Z,0.00
2022-09-05T01:29:19.729Z,0.00
2022-09-05T01:30:16.884Z,0.00
2022-09-05T01:31:15.898Z,0.00
2022-09-05T01:32:15.894Z,0.00
2022-09-05T01:33:15.821Z,0.00
2022-09-05T01:34:16.572Z,0.00
2022-09-05T01:35:16.853Z,0.00
2022-09-05T01:36:15.808Z,0.00
2022-09-05T01:37:33.014Z,0.00
2022-09-05T01:38:16.769Z,0.00
2022-09-05T01:40:14.698Z,0.00
2022-09-05T01:40:17.223Z,0.00
2022-09-05T01:41:18.426Z,0.00
2022-09-05T01:42:16.716Z,0.00
2022-09-05T01:43:15.748Z,0.00
2022-09-05T01:44:15.755Z,0.00
2022-09-05T02:02:38.710Z,0.00
2022-09-05T02:03:38.511Z,0.00
2022-09-05T02:04:39.680Z,0.00
2022-09-05T02:05:48.675Z,0.00
2022-09-05T02:06:43.918Z,0.00
2022-09-05T02:07:39.660Z,0.00
2022-09-05T02:08:39.592Z,0.00
2022-09-05T02:09:39.603Z,0.00
2022-09-05T02:10:39.603Z,0.00
2022-09-05T02:11:39.606Z,0.00
2022-09-05T02:12:39.615Z,0.00
2022-09-05T02:13:39.597Z,0.00
2022-09-05T02:14:39.601Z,0.00
2022-09-05T02:16:13.742Z,0.00
2022-09-05T02:16:39.589Z,0.00
2022-09-05T02:17:51.023Z,0.00
2022-09-05T02:18:40.533Z,0.00
2022-09-05T02:19:39.534Z,0.00
2022-09-05T02:20:39.533Z,0.00
2022-09-05T02:21:55.663Z,0.00
2022-09-05T02:22:40.492Z,0.00
2022-09-05T02:23:41.898Z,0.00
2022-09-05T02:24:39.547Z,0.00
2022-09-05T02:26:01.197Z,0.00
2022-09-05T02:26:40.535Z,0.00
2022-09-05T02:28:04.310Z,0.00
2022-09-05T02:28:40.489Z,0.00
2022-09-05T02:29:39.462Z,0.00
2022-09-05T02:30:48.456Z,0.00
2022-09-05T02:31:40.551Z,0.00
2022-09-05T02:32:43.100Z,0.00
2022-09-05T02:33:39.431Z,0.00
2022-09-05T02:34:39.429Z,0.00
2022-09-05T02:35:39.428Z,0.00
2022-09-05T02:36:39.430Z,0.00
2022-09-05T02:38:19.939Z,0.00
2022-09-05T02:44:16.916Z,0.00
2022-09-05T02:45:08.639Z,0.00
2022-09-05T02:45:13.411Z,0.00
2022-09-05T02:45:14.211Z,0.00
2022-09-05T02:45:18.371Z,0.00
2022-09-05T02:45:18.590Z,0.00
2022-09-05T02:45:19.430Z,0.00
2022-09-05T02:45:40.433Z,0.00
2022-09-05T02:46:39.505Z,0.00
2022-09-05T02:47:39.320Z,0.00
2022-09-05T02:48:39.331Z,0.00
2022-09-05T02:52:21.287Z,0.00
2022-09-05T02:55:14.959Z,0.00
2022-09-05T02:57:24.772Z,0.00
2022-09-05T02:57:38.162Z,0.00
2022-09-05T02:57:38.993Z,0.00
2022-09-05T02:57:43.480Z,0.00
2022-09-05T02:57:46.832Z,0.00
2022-09-05T02:58:05.478Z,0.00
2022-09-05T02:58:05.874Z,0.00
2022-09-05T02:59:08.040Z,0.00
2022-09-05T02:59:41.228Z,0.00
2022-09-05T03:00:40.192Z,0.00
2022-09-05T03:01:39.305Z,0.00
2022-09-05T03:02:39.260Z,0.00
2022-09-05T03:03:39.422Z,0.00
2022-09-05T03:04:39.195Z,0.00
2022-09-05T03:05:39.207Z,0.00
2022-09-05T03:06:39.230Z,0.00
2022-09-05T03:07:39.216Z,0.00
2022-09-05T03:08:39.169Z,0.00
2022-09-05T03:09:39.187Z,0.00
2022-09-05T03:10:54.469Z,0.00
2022-09-05T03:11:40.155Z,0.00
2022-09-05T03:12:39.210Z,0.00
2022-09-05T03:13:50.140Z,0.00
2022-09-05T03:14:40.162Z,0.00
2022-09-05T03:15:39.169Z,0.00
2022-09-05T03:16:47.348Z,0.00
2022-09-05T03:17:40.106Z,0.00
2022-09-05T03:18:39.124Z,0.00
2022-09-05T03:19:46.114Z,0.00
2022-09-05T03:20:40.100Z,0.00
2022-09-05T03:21:39.063Z,0.00
2022-09-05T03:22:39.109Z,0.00
2022-09-05T03:23:39.062Z,0.00
2022-09-05T03:24:39.082Z,0.00
2022-09-05T03:25:39.067Z,0.00
2022-09-05T03:26:39.064Z,0.00
2022-09-05T03:27:39.052Z,0.00
2022-09-05T03:28:39.817Z,0.00
2022-09-05T03:29:39.015Z,0.00
2022-09-05T03:30:39.094Z,0.00
2022-09-05T03:31:38.995Z,0.00
2022-09-05T03:32:40.243Z,0.00
2022-09-05T03:33:38.967Z,0.00
2022-09-05T03:34:38.988Z,0.00
2022-09-05T03:35:39.955Z,0.00
2022-09-05T03:36:38.973Z,0.00
2022-09-05T03:37:38.958Z,0.00
2022-09-05T03:38:38.951Z,0.00
2022-09-05T03:39:39.040Z,0.00
2022-09-05T03:40:38.941Z,0.00
2022-09-05T03:41:40.610Z,0.00
2022-09-05T03:42:38.944Z,0.00
2022-09-05T03:43:38.900Z,0.00
2022-09-05T03:44:38.885Z,0.00
2022-09-05T03:45:38.882Z,0.00
2022-09-05T03:46:38.914Z,0.00
2022-09-05T04:04:37.930Z,0.00
2022-09-05T04:08:07.559Z,4.00
2022-09-05T04:08:10.906Z,4.00
2022-09-05T04:08:17.538Z,0.00
2022-09-05T04:08:17.883Z,4.00
2022-09-05T04:08:28.964Z,4.00
2022-09-05T04:08:41.288Z,8.00
2022-09-05T04:09:49.999Z,8.00
2022-09-05T04:10:31.902Z,8.00
2022-09-05T04:11:29.802Z,8.00
2022-09-05T04:12:29.796Z,8.00
2022-09-05T04:13:29.802Z,12.00
2022-09-05T04:14:29.801Z,12.00
2022-09-05T04:15:29.768Z,12.00
2022-09-05T04:16:29.817Z,16.00
2022-09-05T04:17:30.755Z,20.00
2022-09-05T04:18:32.794Z,24.00
2022-09-05T04:19:29.748Z,28.00
2022-09-05T04:20:29.768Z,32.00
2022-09-05T04:21:29.754Z,36.00
2022-09-05T04:22:29.775Z,44.00
2022-09-05T04:23:29.752Z,52.00
2022-09-05T04:24:29.741Z,64.00
2022-09-05T04:25:29.693Z,72.00
2022-09-05T04:26:29.713Z,88.00
2022-09-05T04:27:29.682Z,100.00
2022-09-05T04:28:29.695Z,116.00
2022-09-05T04:29:29.714Z,132.00
2022-09-05T04:30:39.007Z,148.00
2022-09-05T04:31:30.735Z,160.00
2022-09-05T04:32:29.670Z,176.00
2022-09-05T04:33:36.208Z,196.00
2022-09-05T04:34:30.660Z,220.00
2022-09-05T04:35:29.644Z,248.00
2022-09-05T04:36:29.628Z,276.00
2022-09-05T04:37:29.600Z,300.00
2022-09-05T04:38:30.602Z,332.00
2022-09-05T04:39:29.710Z,360.00
2022-09-05T04:40:32.765Z,400.00
2022-09-05T04:41:39.320Z,444.00
2022-09-05T04:42:30.558Z,496.00
2022-09-05T04:43:29.551Z,544.00
2022-09-05T04:44:30.606Z,596.00
2022-09-05T04:45:29.711Z,652.00
2022-09-05T04:46:29.624Z,708.00
2022-09-05T04:47:29.601Z,768.00
2022-09-05T04:48:30.283Z,820.00
2022-09-05T04:49:29.553Z,876.00
2022-09-05T04:50:37.205Z,940.00
2022-09-05T04:51:32.373Z,1008.00
2022-09-05T04:52:32.283Z,1072.00
2022-09-05T04:53:29.544Z,1136.00
2022-09-05T04:54:30.087Z,1204.00
2022-09-05T04:55:30.551Z,1268.00
2022-09-05T04:56:29.554Z,1324.00
2022-09-05T04:57:29.592Z,1384.00
2022-09-05T04:58:42.050Z,1440.00
2022-09-05T05:01:58.948Z,1496.00
2022-09-05T05:05:59.853Z,1572.00
2022-09-05T05:06:04.286Z,1664.00
2022-09-05T05:06:10.664Z,1956.00
2022-09-05T05:06:12.234Z,1860.00
2022-09-05T05:06:13.727Z,2044.00
2022-09-05T05:06:14.659Z,1756.00
2022-09-05T05:06:44.042Z,2140.00
2022-09-05T05:07:31.548Z,2240.00
2022-09-05T05:08:39.095Z,2368.00
2022-09-05T05:09:30.415Z,2520.00
2022-09-05T05:11:51.133Z,2684.00
2022-09-05T05:18:00.473Z,3044.00
2022-09-05T05:18:00.927Z,3236.00
2022-09-05T05:18:03.432Z,2844.00
2022-09-05T05:18:10.386Z,3888.00
2022-09-05T05:18:14.074Z,3548.00
2022-09-05T05:18:14.829Z,3392.00
2022-09-05T05:18:16.107Z,3712.00
2022-09-05T05:18:39.509Z,4080.00
2022-09-05T05:19:30.363Z,4648.00
2022-09-05T05:20:42.384Z,9600.00
2022-09-05T05:21:30.276Z,15520.00
2022-09-05T05:22:29.274Z,18432.00
2022-09-05T05:23:29.238Z,21760.00
2022-09-05T05:24:29.241Z,23136.00
2022-09-05T05:25:29.246Z,21376.00
2022-09-05T05:26:29.247Z,21728.00
2022-09-05T05:27:29.215Z,25024.00
2022-09-05T05:28:29.243Z,26432.00
2022-09-05T05:29:29.241Z,28608.00
2022-09-05T05:30:29.190Z,28928.00
2022-09-05T05:31:29.215Z,29728.00
2022-09-05T05:32:45.854Z,27680.00
2022-09-05T05:33:30.280Z,25856.00
2022-09-05T05:34:29.211Z,30208.00
2022-09-05T05:35:29.192Z,34176.00
2022-09-05T05:36:29.187Z,36992.00
2022-09-05T05:37:29.135Z,34624.00
2022-09-05T05:38:29.178Z,31968.00
2022-09-05T05:39:29.206Z,34848.00
2022-09-05T05:40:29.153Z,38112.00
2022-09-05T05:41:29.137Z,40640.00
2022-09-05T05:42:29.147Z,43136.00
2022-09-05T05:43:29.110Z,43488.00
2022-09-05T05:44:29.084Z,45568.00
2022-09-05T05:45:29.091Z,46496.00
2022-09-05T05:46:29.159Z,46848.00
2022-09-05T05:47:32.150Z,47744.00
2022-09-05T05:48:29.075Z,47552.00
2022-09-05T05:49:29.069Z,45888.00
2022-09-05T05:50:29.079Z,45600.00
2022-09-05T05:51:44.087Z,45504.00
2022-09-05T05:52:30.046Z,48256.00
2022-09-05T05:53:42.422Z,51008.00
2022-09-05T05:54:30.039Z,51456.00
2022-09-05T05:55:51.695Z,51520.00
2022-09-05T05:56:30.200Z,53568.00
2022-09-05T05:57:29.006Z,53952.00
2022-09-05T05:58:29.339Z,55328.00
2022-09-05T05:59:28.967Z,56928.00
2022-09-05T06:00:30.142Z,57184.00
2022-09-05T06:01:38.100Z,58560.00
2022-09-05T06:02:30.094Z,60704.00
2022-09-05T06:03:29.042Z,59744.00
2022-09-05T06:04:28.989Z,59520.00
2022-09-05T06:05:28.967Z,62176.00
2022-09-05T06:06:28.946Z,62944.00
2022-09-05T06:07:28.979Z,63584.00
2022-09-05T06:10:06.514Z,64256.00
2022-09-05T06:12:53.617Z,65792.00
2022-09-05T06:14:50.284Z,67552.00
2022-09-05T06:14:55.863Z,66400.00
2022-09-05T06:14:55.982Z,66496.00
2022-09-05T06:14:56.700Z,66176.00
2022-09-05T06:14:57.750Z,68256.00
2022-09-05T06:15:30.500Z,68096.00
2022-09-05T06:16:28.930Z,70144.00
2022-09-05T06:17:28.878Z,69984.00
2022-09-05T06:18:28.868Z,69632.00
2022-09-05T06:19:43.605Z,70400.00
2022-09-05T06:22:07.805Z,70464.00
2022-09-05T06:22:08.301Z,70432.00
2022-09-05T06:22:29.798Z,72064.00
2022-09-05T06:23:39.311Z,65440.00
2022-09-05T06:24:29.860Z,68928.00
2022-09-05T06:25:28.808Z,73600.00
2022-09-05T06:26:28.807Z,73568.00
2022-09-05T06:27:28.754Z,73280.00
2022-09-05T06:28:28.786Z,73696.00
2022-09-05T06:29:34.627Z,74144.00
2022-09-05T06:30:31.089Z,74528.00
2022-09-05T06:31:29.883Z,74528.00
2022-09-05T06:32:28.937Z,71328.00
2022-09-05T06:33:28.778Z,74336.00
2022-09-05T06:34:35.867Z,71808.00
2022-09-05T06:35:29.718Z,66624.00
2022-09-05T06:36:28.730Z,70592.00
2022-09-05T06:37:28.730Z,74528.00
2022-09-05T06:38:28.704Z,72096.00
2022-09-05T06:39:28.778Z,66784.00
2022-09-05T06:40:32.045Z,69216.00
2022-09-05T06:41:29.755Z,71200.00
2022-09-05T06:42:42.812Z,71520.00
2022-09-05T06:43:29.702Z,73408.00
2022-09-05T06:44:28.686Z,73504.00
2022-09-05T06:45:28.994Z,76640.00
2022-09-05T06:46:50.597Z,79808.00
2022-09-05T06:47:33.960Z,79520.00
2022-09-05T06:48:44.149Z,73440.00
2022-09-05T06:49:37.291Z,66784.00
2022-09-05T06:50:29.710Z,51616.00
2022-09-05T06:51:29.638Z,44000.00
2022-09-05T06:52:30.407Z,55968.00
2022-09-05T06:53:28.582Z,70080.00
2022-09-05T06:54:28.619Z,68384.00
2022-09-05T06:55:28.587Z,58880.00
2022-09-05T06:56:28.550Z,47712.00
2022-09-05T06:57:28.572Z,44448.00
2022-09-05T06:58:28.611Z,59168.00
2022-09-05T06:59:28.583Z,54752.00
2022-09-05T07:00:28.640Z,58624.00
2022-09-05T07:01:55.204Z,57152.00
2022-09-05T07:02:59.439Z,55104.00
2022-09-05T07:03:29.771Z,61792.00
2022-09-05T07:05:21.766Z,66720.00
2022-09-05T07:05:38.680Z,73344.00
2022-09-05T07:06:59.339Z,78944.00
2022-09-05T07:07:29.508Z,74240.00
2022-09-05T07:08:35.965Z,77504.00
2022-09-05T07:09:29.478Z,73792.00
2022-09-05T07:10:38.312Z,74272.00
2022-09-05T07:11:30.486Z,74624.00
2022-09-05T07:12:30.184Z,67584.00
2022-09-05T07:13:29.083Z,74880.00
2022-09-05T07:14:29.452Z,61024.00
2022-09-05T07:15:28.434Z,52352.00
2022-09-05T07:16:37.468Z,47328.00
2022-09-05T07:17:29.399Z,55200.00
2022-09-05T07:18:30.008Z,61952.00
2022-09-05T07:19:28.420Z,70656.00
2022-09-05T07:20:28.567Z,70816.00
2022-09-05T07:21:28.399Z,75104.00
2022-09-05T07:22:47.925Z,70848.00
2022-09-05T07:23:52.740Z,66464.00
2022-09-05T07:24:53.499Z,68992.00
2022-09-05T07:25:31.630Z,66272.00
2022-09-05T07:26:29.360Z,58368.00
2022-09-05T07:27:29.350Z,58336.00
2022-09-05T07:28:30.517Z,63584.00
2022-09-05T07:29:28.322Z,62688.00
2022-09-05T07:30:28.348Z,63776.00
2022-09-05T07:31:37.922Z,70720.00
2022-09-05T07:32:29.313Z,74176.00
2022-09-05T07:33:28.433Z,63968.00
2022-09-05T07:34:28.281Z,51296.00
2022-09-05T07:35:28.274Z,50880.00
2022-09-05T07:36:28.293Z,58784.00
2022-09-05T07:37:28.351Z,59040.00
2022-09-05T07:38:48.345Z,67776.00
2022-09-05T07:39:29.648Z,77664.00
2022-09-05T07:40:29.369Z,80288.00
2022-09-05T07:41:28.282Z,79072.00
2022-09-05T07:42:28.247Z,78080.00
2022-09-05T07:43:28.352Z,67936.00
2022-09-05T07:44:28.281Z,68416.00
2022-09-05T07:45:28.248Z,73440.00
2022-09-05T07:46:28.220Z,76416.00
2022-09-05T07:47:28.225Z,61184.00
2022-09-05T07:48:35.053Z,67840.00
2022-09-05T07:49:31.118Z,53824.00
2022-09-05T07:52:32.563Z,51552.00
2022-09-05T07:55:26.246Z,59648.00
2022-09-05T07:56:49.701Z,83200.00
2022-09-05T07:56:58.765Z,86912.00
2022-09-05T07:57:04.794Z,84928.00
2022-09-05T07:57:06.157Z,80992.00
2022-09-05T07:57:10.790Z,77472.00
2022-09-05T07:57:31.689Z,67456.00
2022-09-05T07:58:29.123Z,72832.00
2022-09-05T07:59:28.173Z,68864.00
2022-09-05T08:00:29.676Z,82048.00
2022-09-05T08:01:28.190Z,85280.00
2022-09-05T08:02:28.122Z,87520.00
2022-09-05T08:03:28.073Z,74816.00
2022-09-05T08:04:28.066Z,82208.00
2022-09-05T08:05:35.199Z,81952.00
2022-09-05T08:07:45.859Z,82656.00
2022-09-05T08:07:48.854Z,83200.00
2022-09-05T08:08:29.103Z,82592.00
2022-09-05T08:10:09.204Z,85952.00
2022-09-05T08:10:31.435Z,84512.00
2022-09-05T08:11:29.027Z,83840.00
2022-09-05T08:12:28.411Z,86272.00
2022-09-05T08:13:28.925Z,85184.00
2022-09-05T08:14:45.269Z,60352.00
2022-09-05T08:16:10.379Z,47072.00
2022-09-05T08:16:29.967Z,64160.00
2022-09-05T08:17:30.140Z,58048.00
2022-09-05T08:18:28.546Z,71200.00
2022-09-05T08:19:27.979Z,80896.00
2022-09-05T08:20:27.999Z,79040.00
2022-09-05T08:21:28.094Z,75072.00
2022-09-05T08:22:27.962Z,76800.00
2022-09-05T08:23:27.911Z,80352.00
2022-09-05T08:24:28.948Z,77792.00
2022-09-05T08:25:37.587Z,69248.00
2022-09-05T08:26:29.546Z,71904.00
2022-09-05T08:27:28.546Z,69440.00
2022-09-05T08:28:39.290Z,70656.00
2022-09-05T08:29:28.925Z,69568.00
2022-09-05T08:30:28.168Z,68928.00
2022-09-05T08:31:28.956Z,58016.00
2022-09-05T08:32:32.130Z,63456.00
2022-09-05T08:33:28.841Z,67680.00
2022-09-05T08:34:31.510Z,67264.00
2022-09-05T08:35:28.880Z,80288.00
2022-09-05T08:36:27.822Z,68608.00
2022-09-05T08:37:27.858Z,69792.00
2022-09-05T08:38:27.843Z,68992.00
2022-09-05T08:39:28.902Z,58304.00
2022-09-05T08:40:27.902Z,69664.00
2022-09-05T08:41:50.403Z,73760.00
2022-09-05T08:42:28.875Z,79424.00
2022-09-05T08:46:35.412Z,75904.00
2022-09-05T08:46:40.343Z,74208.00
2022-09-05T08:46:40.903Z,79296.00
2022-09-05T08:46:44.583Z,78560.00
2022-09-05T08:47:31.923Z,78752.00
2022-09-05T08:48:28.831Z,77600.00
2022-09-05T08:49:37.035Z,77344.00
2022-09-05T08:50:28.872Z,78080.00
2022-09-05T08:51:27.799Z,75360.00
2022-09-05T08:52:27.742Z,74784.00
2022-09-05T08:53:45.903Z,77408.00
2022-09-05T08:54:28.812Z,77984.00
2022-09-05T08:55:27.725Z,86336.00
2022-09-05T08:56:27.743Z,101344.00
2022-09-05T08:57:27.738Z,58592.00
2022-09-05T08:58:27.719Z,30016.00
2022-09-05T08:59:33.045Z,31808.00
2022-09-05T09:00:31.411Z,35744.00
2022-09-05T09:01:27.698Z,35808.00
2022-09-05T09:02:47.646Z,32800.00
2022-09-05T09:03:28.789Z,30880.00
2022-09-05T09:05:01.629Z,30784.00
2022-09-05T09:06:12.290Z,30656.00
2022-09-05T09:06:28.625Z,29824.00
2022-09-05T09:07:47.971Z,29600.00
2022-09-05T09:08:28.652Z,29024.00
2022-09-05T09:09:27.694Z,28064.00
2022-09-05T09:10:27.681Z,27328.00
2022-09-05T09:11:27.641Z,27488.00
2022-09-05T09:12:27.850Z,27584.00
2022-09-05T09:13:28.111Z,26816.00
2022-09-05T09:14:30.593Z,26976.00
2022-09-05T09:15:27.607Z,24608.00
2022-09-05T09:16:28.610Z,26368.00
2022-09-05T09:17:29.297Z,26464.00
2022-09-05T09:18:27.574Z,23488.00
2022-09-05T09:19:29.030Z,18528.00
2022-09-05T09:20:27.646Z,25760.00
2022-09-05T09:21:27.627Z,17440.00
2022-09-05T09:22:28.616Z,25056.00
2022-09-05T09:23:31.915Z,24384.00
2022-09-05T09:24:27.603Z,23616.00
2022-09-05T09:25:30.641Z,23232.00
2022-09-05T09:26:28.551Z,23040.00
2022-09-05T09:27:36.427Z,23040.00
2022-09-05T09:28:49.488Z,23264.00
2022-09-05T09:29:28.510Z,23584.00
2022-09-05T09:30:27.554Z,23296.00
2022-09-05T09:31:27.585Z,24096.00
2022-09-05T09:32:27.497Z,24160.00
2022-09-05T09:33:27.563Z,24640.00
2022-09-05T09:34:27.529Z,25120.00
2022-09-05T09:35:27.509Z,26304.00
2022-09-05T09:36:27.495Z,27776.00
2022-09-05T09:37:35.578Z,29568.00
2022-09-05T09:38:28.460Z,31296.00
2022-09-05T09:39:39.204Z,33632.00
2022-09-05T09:40:28.437Z,35744.00
2022-09-05T09:41:27.473Z,38688.00
2022-09-05T09:42:33.062Z,42528.00
2022-09-05T09:43:28.444Z,45504.00
2022-09-05T09:44:27.493Z,44320.00
2022-09-05T09:45:28.963Z,47648.00
2022-09-05T09:46:27.479Z,47456.00
2022-09-05T09:47:27.422Z,44832.00
2022-09-05T09:48:27.398Z,43104.00
2022-09-05T09:49:27.404Z,40896.00
2022-09-05T09:50:27.375Z,36160.00
2022-09-05T09:51:27.422Z,32640.00
2022-09-05T09:52:27.401Z,29920.00
2022-09-05T09:53:27.352Z,25632.00
2022-09-05T09:54:27.376Z,23552.00
2022-09-05T09:55:27.337Z,22144.00
2022-09-05T09:56:27.349Z,21888.00
2022-09-05T09:57:27.340Z,19776.00
2022-09-05T09:58:29.188Z,19232.00
2022-09-05T09:59:27.335Z,17920.00
2022-09-05T10:00:27.305Z,17696.00
2022-09-05T10:01:36.043Z,17376.00
2022-09-05T10:04:57.930Z,17024.00
2022-09-05T10:10:04.376Z,16832.00
2022-09-05T10:10:39.559Z,16672.00
2022-09-05T10:10:44.211Z,16288.00
2022-09-05T10:10:45.153Z,16224.00
2022-09-05T10:10:45.890Z,15604.00
2022-09-05T10:10:48.844Z,15808.00
2022-09-05T10:10:57.332Z,16288.00
2022-09-05T10:10:57.644Z,13944.00
2022-09-05T10:12:29.309Z,15496.00
2022-09-05T10:13:27.459Z,15456.00
2022-09-05T10:14:47.832Z,15276.00
2022-09-05T10:15:31.648Z,15280.00
2022-09-05T10:16:27.317Z,15404.00
2022-09-05T10:17:27.205Z,14800.00
2022-09-05T10:18:27.207Z,15220.00
2022-09-05T10:20:29.641Z,15420.00
2022-09-05T10:21:28.167Z,15256.00
2022-09-05T10:22:36.534Z,15136.00
2022-09-05T10:23:29.161Z,15196.00
2022-09-05T10:24:27.245Z,15072.00
2022-09-05T10:25:28.052Z,14724.00
2022-09-05T10:26:27.518Z,13468.00
2022-09-05T10:27:27.139Z,15136.00
2022-09-05T10:28:27.163Z,16224.00
2022-09-05T10:29:36.532Z,15016.00
2022-09-05T10:31:09.582Z,14928.00
2022-09-05T10:33:02.434Z,14920.00
2022-09-05T10:35:07.489Z,15776.00
2022-09-05T10:35:16.769Z,15020.00
2022-09-05T10:35:16.836Z,15008.00
2022-09-05T10:35:28.447Z,15212.00
2022-09-05T10:36:27.160Z,15332.00
2022-09-05T10:37:27.077Z,15156.00
2022-09-05T10:38:27.122Z,15088.00
2022-09-05T10:39:27.171Z,14900.00
2022-09-05T10:40:27.077Z,14656.00
2022-09-05T10:41:27.054Z,14468.00
2022-09-05T10:42:27.072Z,14496.00
2022-09-05T10:43:27.070Z,14976.00
2022-09-05T10:44:27.115Z,14528.00
2022-09-05T10:45:31.362Z,14596.00
2022-09-05T10:46:49.410Z,14760.00
2022-09-05T10:47:29.042Z,13276.00
2022-09-05T10:48:27.026Z,10440.00
2022-09-05T10:49:30.493Z,10424.00
2022-09-05T10:50:27.058Z,10304.00
2022-09-05T10:51:28.269Z,10184.00
2022-09-05T10:52:27.020Z,10124.00
2022-09-05T10:53:27.042Z,10228.00
2022-09-05T10:54:28.059Z,11936.00
2022-09-05T10:55:26.991Z,15296.00
2022-09-05T10:56:28.623Z,11268.00
2022-09-05T10:57:26.918Z,14392.00
2022-09-05T10:58:40.361Z,14188.00
2022-09-05T11:01:19.350Z,13864.00
2022-09-05T11:02:16.496Z,13508.00
2022-09-05T11:02:30.041Z,13128.00
2022-09-05T11:02:33.593Z,12852.00
2022-09-05T11:03:29.286Z,12576.00
2022-09-05T11:04:26.976Z,12308.00
2022-09-05T11:05:27.493Z,12164.00
2022-09-05T11:06:26.914Z,11976.00
2022-09-05T11:07:29.804Z,11912.00
2022-09-05T11:08:26.855Z,11596.00
2022-09-05T11:09:26.833Z,11544.00
2022-09-05T11:10:26.833Z,10168.00
2022-09-05T11:11:34.068Z,7056.00
2022-09-05T11:12:27.849Z,10088.00
2022-09-05T11:13:27.018Z,6976.00
2022-09-05T11:14:27.399Z,6608.00
2022-09-05T11:15:26.793Z,6648.00
2022-09-05T11:16:26.858Z,6956.00
2022-09-05T11:17:26.780Z,7032.00
2022-09-05T11:18:27.121Z,7208.00
2022-09-05T11:19:27.839Z,11256.00
2022-09-05T11:20:34.959Z,10448.00
2022-09-05T11:21:27.806Z,10488.00
2022-09-05T11:22:26.735Z,10416.00
2022-09-05T11:23:26.776Z,6640.00
2022-09-05T11:24:27.665Z,6552.00
2022-09-05T11:25:39.681Z,6612.00
2022-09-05T11:26:27.723Z,6944.00
2022-09-05T11:27:26.723Z,5932.00
2022-09-05T11:28:27.025Z,5724.00
2022-09-05T11:29:26.705Z,5472.00
2022-09-05T11:30:29.938Z,5396.00
2022-09-05T11:31:34.080Z,5360.00
2022-09-05T11:37:44.384Z,5380.00
2022-09-05T11:39:46.814Z,5520.00
2022-09-05T11:39:50.616Z,5452.00
2022-09-05T11:39:51.297Z,5796.00
2022-09-05T11:40:00.115Z,5648.00
2022-09-05T11:40:06.455Z,5656.00
2022-09-05T11:40:09.797Z,5572.00
2022-09-05T11:40:10.549Z,5824.00
2022-09-05T11:41:29.588Z,5496.00
2022-09-05T11:42:26.607Z,5476.00
2022-09-05T11:43:26.609Z,5488.00
2022-09-05T11:44:27.396Z,5584.00
2022-09-05T11:45:27.589Z,5628.00
2022-09-05T11:46:27.833Z,7900.00
2022-09-05T11:47:30.285Z,8700.00
2022-09-05T11:48:27.547Z,9240.00
2022-09-05T11:49:26.576Z,9544.00
2022-09-05T11:50:26.527Z,9360.00
2022-09-05T11:51:33.874Z,9472.00
2022-09-05T11:52:27.546Z,9676.00
2022-09-05T11:53:26.518Z,9920.00
2022-09-05T11:54:26.550Z,10116.00
2022-09-05T11:55:26.515Z,10408.00
2022-09-05T11:56:28.850Z,10588.00
2022-09-05T11:57:33.143Z,10932.00
2022-09-05T11:58:43.492Z,10956.00
2022-09-05T11:59:33.511Z,11036.00
2022-09-05T12:00:31.372Z,10940.00
2022-09-05T12:01:43.047Z,10736.00
2022-09-05T12:02:27.552Z,10476.00
2022-09-05T12:03:57.287Z,10460.00
2022-09-05T12:04:27.482Z,10484.00
2022-09-05T12:05:48.523Z,10264.00
2022-09-05T12:06:27.462Z,10312.00
2022-09-05T12:07:31.906Z,10248.00
2022-09-05T12:08:28.762Z,10248.00
2022-09-05T12:09:26.436Z,10384.00
2022-09-05T12:10:43.396Z,10568.00
2022-09-05T12:11:27.440Z,10796.00
2022-09-05T12:12:38.660Z,11016.00
2022-09-05T12:13:29.346Z,10784.00
2022-09-05T12:14:26.424Z,11188.00
2022-09-05T12:15:26.391Z,11364.00
2022-09-05T12:16:26.859Z,11344.00
2022-09-05T12:17:34.950Z,11124.00
2022-09-05T12:18:27.644Z,10948.00
2022-09-05T12:19:26.347Z,11124.00
2022-09-05T12:20:26.390Z,11112.00
2022-09-05T12:21:26.361Z,7140.00
2022-09-05T12:22:26.328Z,8428.00
2022-09-05T12:23:39.916Z,6336.00
2022-09-05T12:25:23.817Z,6092.00
2022-09-05T12:27:39.156Z,5736.00
2022-09-05T12:27:39.386Z,5884.00
2022-09-05T12:27:39.427Z,5748.00
2022-09-05T12:29:28.176Z,5824.00
2022-09-05T12:29:36.190Z,5804.00
2022-09-05T12:30:30.078Z,5792.00
2022-09-05T12:32:36.385Z,5832.00
2022-09-05T12:33:32.332Z,5872.00
2022-09-05T12:36:05.683Z,6172.00
2022-09-05T12:36:06.882Z,5932.00
2022-09-05T12:36:13.111Z,6036.00
2022-09-05T12:40:53.949Z,6320.00
2022-09-05T12:40:56.296Z,6924.00
2022-09-05T12:40:56.746Z,6528.00
2022-09-05T12:41:34.718Z,6828.00
2022-09-05T12:41:35.013Z,7024.00
2022-09-05T12:41:36.786Z,7112.00
2022-09-05T12:42:34.479Z,7232.00
2022-09-05T12:44:40.354Z,7456.00
2022-09-05T12:44:42.523Z,7992.00
2022-09-05T12:45:37.284Z,12428.00
2022-09-05T12:46:27.174Z,8428.00
2022-09-05T12:47:26.174Z,10980.00
2022-09-05T12:48:26.271Z,8392.00
2022-09-05T12:49:28.591Z,8312.00
2022-09-05T12:50:27.123Z,8252.00